Time;durP1;ratioP1;P1;durP2;ratioP2;P2;SDS_P1;SDS_P2;PMS_P1;PMS_P2;Temp;Humidity;BMP_temperature;BMP_pressure;BME280_temperature;BME280_humidity;BME280_pressure;Samples;Min_cycle;Max_cycle;Signal;HPM_P1;HPM_P2
2023/08/18 03:57:41;;;;;;;12.52;5.72;;;16.80;99.90;;;;;;6215413;23;20008;-87
2023/08/18 04:00:28;;;;;;;9.32;5.38;;;16.90;99.90;;;;;;6216603;23;20025;-88
2023/08/18 04:03:56;;;;;;;9.95;5.07;;;16.90;99.90;;;;;;6214184;23;20385;-89
2023/08/18 04:06:43;;;;;;;8.70;5.47;;;16.80;99.90;;;;;;6217252;23;20288;-89
2023/08/18 04:09:33;;;;;;;8.98;5.60;;;16.80;99.90;;;;;;6213151;23;20420;-91
2023/08/18 04:17:45;;;;;;;10.85;6.38;;;16.60;99.90;;;;;;6250163;22;20102;-84
2023/08/18 04:20:32;;;;;;;18.08;9.18;;;16.60;99.90;;;;;;6275046;22;20436;-83
2023/08/18 04:23:20;;;;;;;22.60;12.55;;;16.60;99.90;;;;;;6217568;23;20059;-87
2023/08/18 04:26:07;;;;;;;18.33;10.95;;;16.60;99.90;;;;;;6216054;23;20055;-86
2023/08/18 04:28:54;;;;;;;16.35;9.98;;;16.50;99.90;;;;;;6216052;23;20035;-86
2023/08/18 04:31:41;;;;;;;20.35;12.65;;;16.40;99.90;;;;;;6216582;23;20391;-87
2023/08/18 04:34:29;;;;;;;20.08;12.35;;;16.30;99.90;;;;;;6214322;23;20304;-86
2023/08/18 04:37:16;;;;;;;20.60;11.88;;;16.20;99.90;;;;;;6213404;23;20324;-87
2023/08/18 04:40:06;;;;;;;18.80;9.73;;;16.20;99.90;;;;;;6214599;23;20327;-86
2023/08/18 04:42:57;;;;;;;15.40;9.35;;;16.30;99.90;;;;;;6214259;23;20031;-86
2023/08/18 04:45:44;;;;;;;15.20;10.93;;;16.40;99.90;;;;;;6214509;23;20028;-89
2023/08/18 04:48:32;;;;;;;15.35;10.57;;;16.40;99.90;;;;;;6214541;23;20273;-89
2023/08/18 04:51:20;;;;;;;18.58;10.40;;;16.50;99.90;;;;;;6215110;23;20020;-90
2023/08/18 04:54:07;;;;;;;16.77;11.10;;;16.60;99.90;;;;;;6214857;23;20032;-85
2023/08/18 04:57:03;;;;;;;15.57;10.43;;;16.60;99.90;;;;;;6215980;23;20093;-88
2023/08/18 04:59:51;;;;;;;17.40;10.60;;;16.60;99.90;;;;;;6216363;23;20119;-90
2023/08/18 05:02:38;;;;;;;17.15;10.45;;;16.60;99.90;;;;;;6217732;23;20048;-88
2023/08/18 05:05:27;;;;;;;13.00;10.35;;;16.60;99.90;;;;;;6219419;23;20021;-90
2023/08/18 05:08:14;;;;;;;18.25;10.05;;;16.60;99.90;;;;;;6221035;23;20572;-91
2023/08/18 05:11:14;;;;;;;16.45;10.40;;;16.70;99.90;;;;;;6219827;23;20024;-90
2023/08/18 05:14:02;;;;;;;13.23;10.63;;;16.70;99.90;;;;;;6219599;23;20029;-88
2023/08/18 05:16:49;;;;;;;13.75;10.27;;;16.70;99.90;;;;;;6217501;23;20036;-89
2023/08/18 05:19:37;;;;;;;14.65;10.65;;;16.70;99.90;;;;;;6217651;23;20162;-90
2023/08/18 05:22:26;;;;;;;13.93;11.38;;;16.60;99.90;;;;;;6212928;23;20055;-88
2023/08/18 05:25:13;;;;;;;17.70;11.43;;;16.60;99.90;;;;;;6216905;23;20024;-87
2023/08/18 05:28:02;;;;;;;11.43;9.73;;;16.60;99.90;;;;;;6217124;23;20030;-90
2023/08/18 05:30:50;;;;;;;15.15;11.48;;;16.60;99.90;;;;;;6215071;23;20042;-90
2023/08/18 05:33:41;;;;;;;13.25;10.13;;;16.70;99.90;;;;;;6216285;23;20033;-90
2023/08/18 05:36:29;;;;;;;13.70;10.48;;;16.70;99.90;;;;;;6213614;23;20301;-87
2023/08/18 05:39:16;;;;;;;15.05;11.07;;;16.70;99.90;;;;;;6217262;23;20063;-87
2023/08/18 05:42:13;;;;;;;12.10;10.40;;;16.80;99.90;;;;;;6214057;23;20032;-87
2023/08/18 05:45:03;;;;;;;14.00;9.43;;;16.90;99.90;;;;;;6213521;23;20288;-87
2023/08/18 05:47:51;;;;;;;16.23;9.63;;;16.90;99.90;;;;;;6216008;23;20290;-85
2023/08/18 05:50:39;;;;;;;17.38;9.23;;;16.90;99.90;;;;;;6211359;23;20284;-81
2023/08/18 05:53:27;;;;;;;10.57;8.80;;;16.90;99.90;;;;;;6211955;23;20020;-85
2023/08/18 05:56:14;;;;;;;11.75;8.43;;;16.90;99.90;;;;;;6212838;23;20024;-87
2023/08/18 05:59:04;;;;;;;20.48;8.05;;;17.00;99.90;;;;;;6214528;23;20396;-85
2023/08/18 06:01:52;;;;;;;9.82;7.70;;;17.10;99.90;;;;;;6214992;23;20028;-85
2023/08/18 06:04:39;;;;;;;9.52;7.40;;;17.30;99.90;;;;;;6213110;23;20381;-87
2023/08/18 06:07:27;;;;;;;13.77;7.32;;;17.30;99.90;;;;;;6214886;23;20021;-87
2023/08/18 06:10:14;;;;;;;11.18;6.60;;;17.50;99.90;;;;;;6215830;23;20035;-86
2023/08/18 06:13:04;;;;;;;8.77;7.18;;;17.60;99.90;;;;;;6215968;23;20024;-87
2023/08/18 06:15:54;;;;;;;9.75;7.40;;;17.70;99.90;;;;;;6213616;23;20025;-87
2023/08/18 06:18:41;;;;;;;9.23;6.57;;;17.80;99.90;;;;;;6218719;23;20020;-85
2023/08/18 06:21:28;;;;;;;12.40;6.93;;;17.90;99.90;;;;;;6225980;23;20029;-84
2023/08/18 06:24:25;;;;;;;11.02;7.10;;;17.90;99.90;;;;;;6220997;23;20020;-83
2023/08/18 06:27:12;;;;;;;8.38;5.93;;;18.00;99.90;;;;;;6216725;23;20025;-85
2023/08/18 06:30:00;;;;;;;10.25;6.05;;;18.10;99.90;;;;;;6222335;23;20024;-83
2023/08/18 06:32:47;;;;;;;11.35;6.75;;;18.20;99.90;;;;;;6216822;23;20021;-83
2023/08/18 06:35:36;;;;;;;8.43;6.07;;;18.30;99.90;;;;;;6214018;23;20095;-80
2023/08/18 06:38:24;;;;;;;9.88;6.32;;;18.40;99.90;;;;;;6216804;23;20048;-84
2023/08/18 06:41:11;;;;;;;13.43;5.20;;;18.60;99.90;;;;;;6216871;23;20100;-86
2023/08/18 06:43:58;;;;;;;11.68;5.80;;;18.70;99.90;;;;;;6218285;23;20032;-83
2023/08/18 06:46:48;;;;;;;14.02;5.55;;;18.90;99.90;;;;;;6213433;23;20021;-82
2023/08/18 06:49:37;;;;;;;112.20;11.20;;;19.00;99.90;;;;;;6214825;23;20095;-83
2023/08/18 06:52:28;;;;;;;8.10;5.03;;;19.10;99.90;;;;;;6212234;23;20020;-82
2023/08/18 06:55:18;;;;;;;16.60;4.97;;;19.30;99.90;;;;;;6216878;23;20060;-84
2023/08/18 06:58:22;;;;;;;9.35;4.78;;;19.60;1.00;;;;;;6213810;23;20297;-84
2023/08/18 07:01:10;;;;;;;12.63;5.05;;;19.90;1.00;;;;;;6214699;23;20033;-82
2023/08/18 07:03:57;;;;;;;12.93;5.72;;;20.20;99.90;;;;;;6214016;23;20031;-85
2023/08/18 07:06:49;;;;;;;14.63;5.30;;;20.30;99.90;;;;;;6215119;23;20384;-83
2023/08/18 07:09:52;;;;;;;10.88;5.18;;;20.50;1.00;;;;;;6214567;23;20031;-90
2023/08/18 09:06:12;;;;;;;5.78;1.98;;;32.30;99.90;;;;;;6130353;23;20061;-92
2023/08/18 09:09:27;;;;;;;3.58;2.05;;;32.50;99.90;;;;;;6097891;23;20048;-90
2023/08/18 09:12:18;;;;;;;;;;;32.30;99.90;;;;;;6106453;23;20145;-90
2023/08/18 10:07:16;;;;;;;3.08;1.90;;;35.40;1.00;;;;;;6227817;22;20025;-88
2023/08/18 10:10:07;;;;;;;4.90;1.65;;;35.30;1.20;;;;;;6219899;23;20084;-89
2023/08/18 10:13:25;;;;;;;4.00;1.58;;;35.20;1.00;;;;;;6216269;23;20032;-89
2023/08/18 10:17:06;;;;;;;4.97;1.50;;;35.80;1.00;;;;;;6206298;23;20017;-89
2023/08/18 10:20:09;;;;;;;3.20;1.33;;;36.40;1.00;;;;;;6204499;23;20028;-90
2023/08/18 10:22:57;;;;;;;3.35;1.38;;;36.00;1.00;;;;;;6223141;23;20443;-88
2023/08/18 10:30:43;;;;;;;2.50;1.52;;;34.80;1.00;;;;;;6145006;23;20025;-91
2023/08/18 10:33:33;;;;;;;2.92;1.35;;;34.90;1.00;;;;;;6218935;23;20047;-89
2023/08/18 10:36:24;;;;;;;2.95;1.60;;;35.20;1.00;;;;;;6220064;22;20035;-87
2023/08/18 10:39:44;;;;;;;;;;;36.10;1.00;;;;;;6224076;23;20055;-90
2023/08/18 10:42:38;;;;;;;2.05;1.45;;;36.80;1.00;;;;;;6219719;23;19915;-90
2023/08/18 10:49:23;;;;;;;3.28;1.42;;;37.20;1.00;;;;;;6219034;23;20067;-88
2023/08/18 12:18:33;;;;;;;5.20;1.20;;;39.60;1.00;;;;;;6216289;22;20048;-89
2023/08/18 12:30:28;;;;;;;;;;;;;;;;;;;;;
2023/08/18 12:36:48;;;;;;;;;;;;;;;;;;;;;
2023/08/18 12:48:43;;;;;;;4.28;1.60;;;40.30;1.00;;;;;;6095806;23;20023;-87
2023/08/18 12:55:44;;;;;;;5.72;1.67;;;39.60;1.00;;;;;;6080606;23;20049;-90
2023/08/18 13:48:09;;;;;;;3.95;1.75;;;41.00;1.00;;;;;;6124060;23;20006;-92
2023/08/18 16:09:05;;;;;;;4.57;1.77;;;37.10;1.00;;;;;;6225150;22;20024;-87
2023/08/18 16:16:22;;;;;;;6.30;1.92;;;35.20;1.00;;;;;;6184320;23;20846;-88
2023/08/18 16:27:51;;;;;;;4.75;1.85;;;35.30;1.00;;;;;;6126081;23;20409;-88
2023/08/18 16:30:44;;;;;;;7.95;2.08;;;35.10;1.00;;;;;;6163080;23;20036;-89
2023/08/18 16:42:56;;;;;;;7.25;2.03;;;32.70;1.00;;;;;;6039905;23;20015;-91
2023/08/18 16:45:55;;;;;;;6.03;2.00;;;32.00;1.00;;;;;;6076873;23;20130;-91
2023/08/18 16:48:43;;;;;;;7.30;2.50;;;31.60;1.00;;;;;;6107189;23;20484;-90
2023/08/18 16:52:04;;;;;;;8.27;2.60;;;31.30;1.00;;;;;;6099976;23;20413;-91
2023/08/18 16:54:52;;;;;;;3.38;2.03;;;30.90;1.00;;;;;;6147848;23;20049;-91
2023/08/18 16:57:39;;;;;;;7.43;2.30;;;30.40;1.00;;;;;;6192185;23;20294;-91
2023/08/18 17:00:26;;;;;;;4.10;1.90;;;30.20;1.00;;;;;;6187109;23;20021;-92
2023/08/18 17:03:16;;;;;;;8.73;2.45;;;30.10;1.00;;;;;;6187888;23;20024;-94
2023/08/18 17:06:05;;;;;;;9.20;2.65;;;30.00;1.00;;;;;;6186276;23;20084;-93
2023/08/18 17:08:55;;;;;;;8.23;2.65;;;29.80;1.00;;;;;;6189214;23;20108;-90
2023/08/18 17:11:43;;;;;;;6.78;2.72;;;29.60;1.00;;;;;;6168720;23;20104;-93
2023/08/18 17:14:33;;;;;;;8.00;2.13;;;29.40;1.00;;;;;;6188239;23;20039;-89
2023/08/18 17:17:20;;;;;;;5.63;2.47;;;29.40;1.00;;;;;;6189228;23;20025;-92
2023/08/18 17:20:08;;;;;;;5.88;2.25;;;29.30;1.00;;;;;;6192605;23;20041;-91
2023/08/18 17:22:58;;;;;;;5.03;2.33;;;29.20;1.00;;;;;;6190615;23;20427;-92
2023/08/18 17:25:45;;;;;;;8.85;2.63;;;29.00;1.00;;;;;;6190188;23;20306;-91
2023/08/18 17:28:32;;;;;;;7.63;2.35;;;28.90;1.00;;;;;;6187847;23;20450;-91
2023/08/18 17:31:20;;;;;;;7.93;2.45;;;28.80;1.00;;;;;;6187721;23;20097;-92
2023/08/18 17:34:07;;;;;;;6.45;2.38;;;28.70;1.00;;;;;;6184464;23;20100;-92
2023/08/18 17:36:56;;;;;;;4.57;2.13;;;28.60;1.00;;;;;;6187033;23;20044;-90
2023/08/18 17:39:44;;;;;;;5.07;2.33;;;28.40;1.00;;;;;;6200247;23;20052;-91
2023/08/18 17:42:31;;;;;;;5.82;2.35;;;28.40;1.00;;;;;;6198125;23;20044;-88
2023/08/18 17:45:19;;;;;;;5.50;2.33;;;28.20;1.00;;;;;;6197659;23;20025;-91
2023/08/18 17:48:13;;;;;;;6.43;2.72;;;28.10;1.00;;;;;;6194471;23;20031;-90
2023/08/18 17:51:03;;;;;;;8.15;2.40;;;28.00;1.00;;;;;;6194515;23;20029;-90
2023/08/18 17:53:53;;;;;;;5.18;2.53;;;27.90;1.00;;;;;;6188242;23;20036;-91
2023/08/18 17:56:41;;;;;;;8.07;2.35;;;27.80;1.00;;;;;;6189017;23;20043;-92
2023/08/18 17:59:33;;;;;;;4.90;2.35;;;27.70;1.00;;;;;;6191188;23;20048;-93
2023/08/18 18:02:22;;;;;;;7.32;2.60;;;27.60;1.00;;;;;;6200645;23;20025;-93
2023/08/18 18:05:10;;;;;;;6.18;2.65;;;27.50;1.00;;;;;;6193375;23;20053;-90
2023/08/18 18:08:02;;;;;;;6.90;2.28;;;27.40;1.00;;;;;;6187356;23;20108;-92
2023/08/18 18:10:54;;;;;;;6.70;2.35;;;27.20;1.00;;;;;;6187848;23;20044;-90
2023/08/18 18:13:45;;;;;;;10.70;2.40;;;27.20;1.00;;;;;;6188955;23;20032;-92
2023/08/18 18:16:32;;;;;;;6.43;2.42;;;27.10;1.00;;;;;;6186054;23;20032;-92
2023/08/18 18:19:24;;;;;;;7.10;1.95;;;27.00;1.00;;;;;;6187512;23;20036;-91
2023/08/18 18:22:12;;;;;;;7.70;1.83;;;26.80;1.00;;;;;;6187863;23;20029;-93
2023/08/18 18:25:03;;;;;;;8.40;2.80;;;26.70;1.00;;;;;;6186334;23;20044;-92
2023/08/18 18:27:51;;;;;;;4.72;2.20;;;26.60;1.00;;;;;;6188622;23;20032;-92
2023/08/18 18:30:39;;;;;;;7.25;2.30;;;26.50;1.00;;;;;;6186352;23;20032;-93
2023/08/18 18:33:27;;;;;;;4.40;2.28;;;26.30;1.00;;;;;;6187431;23;20032;-90
2023/08/18 18:36:16;;;;;;;4.20;2.25;;;26.20;1.00;;;;;;6187285;23;20359;-92
2023/08/18 18:39:03;;;;;;;9.50;2.78;;;26.10;1.00;;;;;;6189727;23;20353;-92
2023/08/18 18:41:53;;;;;;;4.88;1.98;;;26.00;1.00;;;;;;6188985;23;20306;-91
2023/08/18 18:44:56;;;;;;;6.40;2.33;;;25.80;1.00;;;;;;6187996;23;20408;-92
2023/08/18 18:48:06;;;;;;;6.28;2.47;;;25.70;1.00;;;;;;6187509;23;20324;-92
2023/08/18 18:50:55;;;;;;;4.95;2.50;;;25.60;1.00;;;;;;6187451;23;20577;-92
2023/08/18 18:53:43;;;;;;;10.15;3.25;;;25.40;1.00;;;;;;6167507;23;20040;-91
2023/08/18 18:56:30;;;;;;;8.25;2.67;;;25.30;1.00;;;;;;6190210;23;20029;-92
2023/08/18 18:59:20;;;;;;;7.45;2.35;;;25.30;1.00;;;;;;6186807;23;20044;-91
2023/08/18 19:02:09;;;;;;;3.92;2.35;;;25.20;1.00;;;;;;6188596;23;20126;-90
2023/08/18 19:04:58;;;;;;;5.57;2.58;;;25.20;1.00;;;;;;6187472;23;20407;-92
2023/08/18 19:07:46;;;;;;;4.18;2.60;;;25.20;1.00;;;;;;6189919;23;20045;-91
2023/08/18 19:10:41;;;;;;;6.45;2.88;;;25.10;1.00;;;;;;6190637;23;20033;-92
2023/08/18 19:13:28;;;;;;;11.57;2.85;;;25.00;1.00;;;;;;6188167;23;20104;-90
2023/08/18 19:16:17;;;;;;;5.43;2.88;;;24.90;1.00;;;;;;6189562;23;20052;-92
2023/08/18 19:19:05;;;;;;;7.18;3.47;;;24.80;1.00;;;;;;6190169;23;20020;-92
2023/08/18 19:21:52;;;;;;;8.10;2.83;;;24.60;1.00;;;;;;6197546;23;20087;-93
2023/08/18 19:24:42;;;;;;;14.18;3.10;;;24.30;1.00;;;;;;6203435;23;20424;-91
2023/08/18 19:27:53;;;;;;;7.65;2.63;;;24.10;7.00;;;;;;6200920;23;20465;-92
2023/08/18 19:31:08;;;;;;;7.57;3.20;;;24.00;16.10;;;;;;6209402;23;20040;-88
2023/08/18 19:34:50;;;;;;;6.60;2.95;;;23.90;47.50;;;;;;6210108;23;20044;-88
2023/08/18 19:37:45;;;;;;;8.73;3.20;;;23.80;63.00;;;;;;6211481;23;20021;-90
2023/08/18 19:40:38;;;;;;;8.15;2.90;;;23.70;66.70;;;;;;6212940;23;20040;-92
2023/08/18 19:43:26;;;;;;;8.57;3.50;;;23.60;89.60;;;;;;6205284;23;20029;-91
2023/08/18 19:46:16;;;;;;;14.68;3.40;;;23.50;90.50;;;;;;6196266;23;20040;-91
2023/08/18 19:49:04;;;;;;;10.65;3.10;;;23.60;99.90;;;;;;6193844;23;20072;-91
2023/08/18 19:51:51;;;;;;;12.43;3.20;;;23.50;99.90;;;;;;6190744;23;20333;-92
2023/08/18 19:54:43;;;;;;;8.40;3.25;;;23.50;99.90;;;;;;6189884;23;20122;-91
2023/08/18 19:57:31;;;;;;;8.73;3.35;;;23.40;99.90;;;;;;6189161;23;20114;-92
2023/08/18 20:00:20;;;;;;;9.95;3.50;;;23.40;99.90;;;;;;6188820;23;20036;-90
2023/08/18 20:03:27;;;;;;;6.70;2.88;;;23.40;99.90;;;;;;6187565;23;20043;-90
2023/08/18 20:06:17;;;;;;;10.23;3.08;;;23.40;99.90;;;;;;6188739;23;20025;-92
2023/08/18 20:09:05;;;;;;;9.65;3.42;;;23.40;99.90;;;;;;6187170;23;20025;-93
2023/08/18 20:11:53;;;;;;;6.50;3.30;;;23.40;99.90;;;;;;6190428;23;20091;-91
2023/08/18 20:14:44;;;;;;;10.63;4.13;;;23.30;99.90;;;;;;6187671;23;20024;-92
2023/08/18 20:17:33;;;;;;;7.97;3.13;;;23.20;99.90;;;;;;6189442;23;20035;-92
2023/08/18 20:20:24;;;;;;;10.98;3.17;;;23.00;99.90;;;;;;6188775;23;20025;-92
2023/08/18 20:23:13;;;;;;;12.48;3.10;;;22.90;99.90;;;;;;6187071;23;20093;-92
2023/08/18 20:26:05;;;;;;;9.10;3.28;;;22.90;99.90;;;;;;6169155;23;20089;-91
2023/08/18 20:28:54;;;;;;;8.05;3.85;;;22.80;99.90;;;;;;6188826;23;20044;-92
2023/08/18 20:31:42;;;;;;;10.60;3.97;;;22.60;99.90;;;;;;6190442;23;20107;-92
2023/08/18 20:34:32;;;;;;;10.43;3.50;;;22.40;99.90;;;;;;6195444;23;20362;-92
2023/08/18 20:37:19;;;;;;;8.63;4.05;;;22.20;99.90;;;;;;6200681;23;20045;-91
2023/08/18 20:40:07;;;;;;;10.02;3.50;;;22.10;99.90;;;;;;6190084;23;20035;-92
2023/08/18 20:42:55;;;;;;;15.82;4.07;;;22.00;99.90;;;;;;6186411;23;20021;-90
2023/08/18 20:45:45;;;;;;;10.85;4.45;;;22.00;99.90;;;;;;6188300;23;20084;-89
2023/08/18 20:48:32;;;;;;;8.52;3.63;;;21.90;99.90;;;;;;6186276;23;20065;-89
2023/08/18 20:51:22;;;;;;;10.18;3.95;;;21.80;1.00;;;;;;6188899;23;20440;-89
2023/08/18 20:54:15;;;;;;;9.35;3.42;;;21.90;99.90;;;;;;6187188;23;20045;-87
2023/08/18 20:57:06;;;;;;;7.82;3.97;;;22.00;99.90;;;;;;6186918;23;20025;-89
2023/08/18 20:59:58;;;;;;;6.35;3.50;;;22.10;99.90;;;;;;6187493;23;20047;-87
2023/08/18 21:02:46;;;;;;;6.97;3.55;;;21.90;99.90;;;;;;6185363;23;20412;-88
2023/08/18 21:05:33;;;;;;;13.00;4.13;;;21.80;1.00;;;;;;6186155;23;20025;-88
2023/08/18 21:08:21;;;;;;;12.23;4.13;;;21.60;1.00;;;;;;6185271;23;20103;-88
2023/08/18 21:11:08;;;;;;;6.72;3.55;;;21.50;1.00;;;;;;6186447;23;20163;-86
2023/08/18 21:13:55;;;;;;;6.03;3.25;;;21.40;1.00;;;;;;6184990;23;20310;-88
2023/08/18 21:16:43;;;;;;;12.73;3.88;;;21.40;1.00;;;;;;6186442;23;20025;-87
2023/08/18 21:19:30;;;;;;;11.25;3.97;;;21.40;1.00;;;;;;6185772;23;20373;-89
2023/08/18 21:22:17;;;;;;;8.60;4.00;;;21.50;1.00;;;;;;6184183;23;20025;-90
2023/08/18 21:25:08;;;;;;;6.75;3.58;;;21.60;1.00;;;;;;6187583;23;20032;-88
2023/08/18 21:27:58;;;;;;;13.30;3.70;;;21.70;1.00;;;;;;6165015;23;20025;-89
2023/08/18 21:30:46;;;;;;;13.82;3.55;;;21.80;1.00;;;;;;6187723;23;20072;-89
2023/08/18 21:33:34;;;;;;;8.55;3.58;;;21.90;1.00;;;;;;6188420;23;20083;-88
2023/08/18 21:36:24;;;;;;;10.32;3.45;;;21.90;1.00;;;;;;6189093;23;20017;-88
2023/08/18 21:39:12;;;;;;;8.05;3.45;;;21.90;99.90;;;;;;6190451;23;20025;-90
2023/08/18 21:42:05;;;;;;;9.98;3.70;;;21.90;99.90;;;;;;6187033;23;20024;-88
2023/08/18 21:44:55;;;;;;;11.18;3.20;;;21.80;99.90;;;;;;6188871;23;20321;-89
2023/08/18 21:47:42;;;;;;;9.15;3.80;;;21.70;99.90;;;;;;6186524;23;20317;-90
2023/08/18 21:50:30;;;;;;;7.88;3.17;;;21.70;1.00;;;;;;6185648;23;20087;-90
2023/08/18 21:53:18;;;;;;;8.57;3.65;;;21.70;1.00;;;;;;6189291;23;20021;-89
2023/08/18 21:56:08;;;;;;;8.95;3.53;;;21.60;1.00;;;;;;6189143;23;20029;-89
2023/08/18 21:58:55;;;;;;;7.03;3.30;;;21.40;1.00;;;;;;6186806;23;20029;-89
2023/08/18 22:01:45;;;;;;;9.55;4.38;;;21.30;1.00;;;;;;6185558;23;20021;-87
2023/08/18 22:04:36;;;;;;;8.88;3.92;;;21.10;1.00;;;;;;6188183;23;20420;-89
2023/08/18 22:07:26;;;;;;;12.98;5.70;;;21.00;1.00;;;;;;6186984;23;20029;-89
2023/08/18 22:10:14;;;;;;;7.78;4.60;;;20.80;78.90;;;;;;6186463;23;20029;-91
2023/08/18 22:13:06;;;;;;;8.38;4.47;;;20.70;99.90;;;;;;6188096;23;20147;-89
2023/08/18 22:15:53;;;;;;;9.35;3.97;;;20.60;99.90;;;;;;6186631;23;20044;-89
2023/08/18 22:18:41;;;;;;;10.10;4.00;;;20.50;1.00;;;;;;6186408;23;20325;-89
2023/08/18 22:21:28;;;;;;;7.45;3.75;;;20.30;1.00;;;;;;6187756;23;20159;-90
2023/08/18 22:24:16;;;;;;;9.23;4.47;;;20.20;99.90;;;;;;6187847;23;20031;-90
2023/08/18 22:27:05;;;;;;;12.18;4.35;;;20.10;99.90;;;;;;6189633;23;20412;-90
2023/08/18 22:29:55;;;;;;;12.33;4.60;;;20.10;1.00;;;;;;6198898;23;20033;-91
2023/08/18 22:32:43;;;;;;;11.68;4.22;;;20.00;1.00;;;;;;6199988;23;20088;-90
2023/08/18 22:35:30;;;;;;;7.53;4.20;;;19.90;1.00;;;;;;6199141;23;20036;-88
2023/08/18 22:38:19;;;;;;;8.45;3.80;;;19.90;99.90;;;;;;6208838;23;20088;-88
2023/08/18 22:41:06;;;;;;;7.80;4.07;;;19.90;99.90;;;;;;6203630;23;20064;-88
2023/08/18 22:43:54;;;;;;;9.60;3.78;;;19.80;99.90;;;;;;6200040;23;20035;-89
2023/08/18 22:46:43;;;;;;;8.02;4.13;;;19.80;1.00;;;;;;6198280;23;20104;-89
2023/08/18 22:49:31;;;;;;;8.75;4.80;;;19.70;1.00;;;;;;6192616;23;20075;-89
2023/08/18 22:52:22;;;;;;;7.47;3.10;;;19.70;1.00;;;;;;6189165;23;20109;-88
2023/08/18 22:55:09;;;;;;;10.48;4.13;;;19.90;99.90;;;;;;6186099;23;20108;-89
2023/08/18 22:57:56;;;;;;;11.90;4.10;;;20.00;1.00;;;;;;6197346;23;20035;-90
2023/08/18 23:00:43;;;;;;;8.07;3.80;;;20.00;1.00;;;;;;6181553;23;20029;-89
2023/08/18 23:03:31;;;;;;;9.93;4.03;;;20.00;99.90;;;;;;6192731;23;20036;-89
2023/08/18 23:06:18;;;;;;;8.82;4.10;;;20.00;99.90;;;;;;6187558;23;20035;-90
2023/08/18 23:09:07;;;;;;;7.35;3.75;;;19.90;99.90;;;;;;6186027;23;20025;-89
2023/08/18 23:11:58;;;;;;;6.20;3.67;;;19.80;99.90;;;;;;6197811;23;20025;-89
2023/08/18 23:14:46;;;;;;;9.13;4.40;;;19.80;99.90;;;;;;6193966;23;20068;-89
2023/08/18 23:17:34;;;;;;;9.55;4.97;;;19.70;99.90;;;;;;6194395;23;20435;-91
2023/08/18 23:20:21;;;;;;;8.90;4.82;;;19.70;99.90;;;;;;6194983;23;20031;-90
2023/08/18 23:23:09;;;;;;;6.97;4.07;;;19.70;99.90;;;;;;6189626;23;20424;-89
2023/08/18 23:25:56;;;;;;;8.25;4.28;;;19.70;49.60;;;;;;6183698;23;20460;-90
2023/08/18 23:28:44;;;;;;;7.97;3.78;;;19.80;99.90;;;;;;6187209;23;20286;-88
2023/08/18 23:31:31;;;;;;;11.80;3.50;;;19.90;99.90;;;;;;6184619;23;20028;-89
2023/08/18 23:34:21;;;;;;;7.10;3.60;;;20.00;73.80;;;;;;6185859;23;20025;-89
2023/08/18 23:37:08;;;;;;;7.22;3.05;;;20.10;1.00;;;;;;6185040;23;20021;-91
2023/08/18 23:39:56;;;;;;;7.75;3.45;;;20.20;1.00;;;;;;6186182;23;20025;-90
2023/08/18 23:42:52;;;;;;;7.35;3.25;;;20.20;1.00;;;;;;6187347;23;20017;-90
2023/08/18 23:45:41;;;;;;;7.68;3.28;;;20.20;1.00;;;;;;6187246;23;20025;-89
2023/08/18 23:48:41;;;;;;;10.95;4.43;;;20.10;1.00;;;;;;6187567;23;20435;-89
2023/08/18 23:51:32;;;;;;;7.68;4.05;;;20.00;30.00;;;;;;6185093;23;20043;-89
2023/08/18 23:54:19;;;;;;;7.05;3.45;;;19.80;99.90;;;;;;6188192;23;20416;-89
2023/08/18 23:57:09;;;;;;;6.57;3.90;;;19.60;99.90;;;;;;6187552;23;20044;-88
2023/08/18 23:59:56;;;;;;;9.02;3.80;;;19.40;1.00;;;;;;6189463;23;20029;-89
